Terminal Aerodrome Forecast
Issued by NWS Tulsa, OK

Home | Current Version | Previous Version | Text Only | Print | Product List | Glossary On
Versions: 1 2 3 4 5 6 7 8 9 10 11 12
250
FTUS44 KTSA 210520
TAFTUL
TAF
KTUL 210520Z 2106/2206 15011KT P6SM OVC250 WS020/19040KT
     FM211000 16015KT P6SM BKN020 WS020/19040KT
     FM211500 17016G25KT P6SM BKN012
     FM211800 18016G25KT P6SM BKN020
     FM220200 19015KT P6SM VCTS BKN025CB
     FM220300 35012G21KT 3SM TSRA BKN025CB
     FM220500 35013KT 5SM -TSRA BKN025CB=

USA.gov is the U.S. government's official web portal to all federal, state and local government web resources and services.